Latest Weather Observations for Yarrawonga

IDV60801

Issued at 9:22 pm EDT Friday 6 December 2019 (issued every 10 minutes, with the page automatically refreshed every 10 minutes)

About weather observations | Map of weather stations | Latest weather observations for VIC | Other Formats
Station Details ID: 081124 Name: YARRAWONGA Lat: -36.03 Lon: 146.03 Height: 128.9 m
Data from the previous 72 hours. | See also: Recent months at Yarrawonga
Date/Time
EDT
Temp
°C
App
Temp
°C
Dew
Point
°C
Rel
Hum
%
Delta-T
°C
Wind Press
QNH
hPa
Press
MSL
hPa
Rain since
9am
mm
Dir  Spd
km/h
Gust
km/h
Spd
kts
Gust
kts
06/09:00pm 19.0 15.9 3.6 36 7.3 SSW 9 13 5 7 1011.8 1011.3 0.0
06/08:30pm 20.9 16.3 3.6 32 8.3 SSW 17 22 9 12 1011.6 1011.1 0.0
06/08:00pm 22.3 17.6 3.4 29 9.2 SSW 17 24 9 13 1011.1 1010.6 0.0
06/07:30pm 23.7 17.8 2.0 24 10.3 SW 22 30 12 16 1010.5 1010.0 0.0
06/07:00pm 24.6 18.3 1.5 22 11.0 SW 24 35 13 19 1010.1 1009.6 0.0
06/06:30pm 24.6 17.5 1.5 22 11.0 SW 28 35 15 19 1010.0 1009.5 0.0
06/06:00pm 25.3 18.2 1.4 21 11.4 SW 28 44 15 24 1009.8 1009.3 0.0
06/05:30pm 25.4 18.2 0.8 20 11.6 SW 28 59 15 32 1009.7 1009.2 0.0
06/05:00pm 25.9 18.6 -0.2 18 12.1 WSW 28 46 15 25 1009.9 1009.4 0.0
06/04:59pm 26.1 18.8 0.0 18 12.2 WSW 28 46 15 25 1009.9 1009.4 0.0
06/04:30pm 26.0 19.3 1.3 20 11.8 SW 26 41 14 22 1009.8 1009.3 0.0
06/04:00pm 26.4 19.1 0.2 18 12.3 WSW 28 46 15 25 1010.0 1009.5 0.0
06/03:30pm 25.3 17.2 0.0 19 11.7 SW 32 44 17 24 1010.0 1009.5 0.0
06/03:02pm 26.4 19.2 0.9 19 12.1 WSW 28 48 15 26 1010.2 1009.7 0.0
06/03:00pm 25.3 18.3 -0.7 18 11.9 WSW 26 37 14 20 1010.2 1009.7 0.0
06/02:30pm 25.6 19.5 2.9 23 11.1 WSW 24 37 13 20 1010.3 1009.8 0.0
06/02:00pm 24.9 18.5 3.0 24 10.7 W 26 39 14 21 1010.3 1009.8 0.0
06/01:30pm 23.5 17.9 3.4 27 9.8 WSW 22 46 12 25 1010.7 1010.2 0.0
06/01:00pm 23.4 17.6 4.4 29 9.4 WSW 24 35 13 19 1010.9 1010.4 0.0
06/12:30pm 22.8 17.3 3.9 29 9.3 WSW 22 43 12 23 1010.8 1010.3 0.0
06/12:00pm 22.5 15.8 5.4 33 8.6 SW 30 44 16 24 1011.7 1011.2 0.0
06/11:30am 20.3 14.6 5.1 37 7.5 SW 24 41 13 22 1011.0 1010.5 0.0
06/11:00am 20.0 13.6 5.3 38 7.3 SW 28 43 15 23 1011.2 1010.7 0.0
06/10:30am 19.5 15.0 5.9 41 6.8 SW 19 28 10 15 1011.1 1010.6 0.0
06/10:00am 18.1 13.1 6.3 46 5.9 SW 22 32 12 17 1011.0 1010.5 0.0
06/09:30am 17.7 11.8 5.9 46 5.8 SW 26 33 14 18 1011.0 1010.5 0.0
06/09:00am 17.1 12.5 6.6 50 5.2 SW 20 28 11 15 1010.6 1010.1 0.0
06/08:30am 15.5 10.8 7.8 60 3.9 SW 22 28 12 15 1010.5 1010.0 0.0
06/08:00am 14.2 9.2 7.9 66 3.2 SW 24 33 13 18 1010.2 1009.7 0.0
06/07:30am 13.4 8.6 8.9 74 2.3 WSW 24 30 13 16 1010.0 1009.5 0.0
06/07:00am 12.9 9.6 9.4 79 1.8 W 17 20 9 11 1009.3 1008.8 0.0
06/06:30am 12.4 10.2 9.4 82 1.5 WSW 11 15 6 8 1008.9 1008.4 0.0
06/06:00am 11.7 8.7 9.1 84 1.3 WSW 15 19 8 10 1008.9 1008.4 0.0
06/05:30am 12.2 9.6 9.4 83 1.4 WSW 13 17 7 9 1008.7 1008.2 0.0
06/05:00am 12.5 9.6 9.5 82 1.5 WSW 15 19 8 10 1008.3 1007.8 0.0
06/04:30am 11.6 9.4 9.2 85 1.2 WSW 11 13 6 7 1008.2 1007.7 0.0
06/04:00am 12.0 10.3 8.5 79 1.7 WSW 7 9 4 5 1008.0 1007.5 0.0
06/03:30am 12.9 10.9 8.6 75 2.2 WSW 9 11 5 6 1007.9 1007.4 0.0
06/03:00am 12.8 10.2 7.9 72 2.4 SW 11 13 6 7 1008.0 1007.5 0.0
06/02:30am 13.7 11.0 7.2 65 3.2 WSW 11 13 6 7 1008.1 1007.6 0.0
06/02:00am 15.1 11.9 6.7 57 4.1 WSW 13 15 7 8 1008.0 1007.5 0.0
06/01:30am 15.6 12.3 6.6 55 4.4 WSW 13 15 7 8 1008.2 1007.7 0.0
06/01:00am 16.6 13.2 6.1 50 5.2 WSW 13 17 7 9 1008.2 1007.7 0.0
06/12:30am 17.3 13.8 5.6 46 5.7 WSW 13 15 7 8 1008.2 1007.7 0.0
06/12:00am 18.0 14.1 5.2 43 6.2 WSW 15 19 8 10 1008.2 1007.7 0.0
 
Date/Time
EDT
Temp
°C
App
Temp
°C
Dew
Point
°C
Rel
Hum
%
Delta-T
°C
Wind Press
QNH
hPa
Press
MSL
hPa
Rain since
9am
mm
Dir  Spd
km/h
Gust
km/h
Spd
kts
Gust
kts
05/11:30pm 19.1 15.9 5.2 40 6.8 W 11 15 6 8 1008.2 1007.7 0.0
05/11:00pm 19.4 15.8 5.1 39 7.0 W 13 15 7 8 1008.1 1007.6 0.0
05/10:30pm 20.6 17.0 5.0 36 7.7 W 13 17 7 9 1007.9 1007.4 0.0
05/10:00pm 21.0 17.7 4.6 34 8.1 WSW 11 17 6 9 1007.7 1007.2 0.0
05/09:30pm 22.7 18.1 3.8 29 9.2 W 17 20 9 11 1007.3 1006.8 0.0
05/09:00pm 23.2 19.5 4.2 29 9.4 W 13 17 7 9 1007.3 1006.8 0.0
05/08:30pm 24.8 20.6 4.0 26 10.4 W 15 22 8 12 1007.0 1006.5 0.0
05/08:00pm 25.7 20.5 3.6 24 11.0 W 20 30 11 16 1006.9 1006.4 0.0
05/07:30pm 26.4 19.7 3.6 23 11.4 W 28 37 15 20 1006.7 1006.3 0.0
05/07:00pm 26.7 21.6 3.9 23 11.5 W 20 32 11 17 1006.5 1006.1 0.0
05/06:30pm 27.6 21.7 4.0 22 12.0 WNW 24 35 13 19 1006.6 1006.2 0.0
05/06:00pm 27.8 21.2 4.2 22 12.1 W 28 41 15 22 1006.4 1006.0 0.0
05/05:30pm 27.9 21.3 4.2 22 12.1 W 28 43 15 23 1006.7 1006.3 0.0
05/05:00pm 27.8 21.6 4.2 22 12.0 W 26 44 14 24 1007.0 1006.5 0.0
05/04:30pm 27.7 21.1 4.1 22 12.0 W 28 39 15 21 1007.2 1006.7 0.0
05/04:15pm 27.3 20.0 4.4 23 11.7 WSW 32 50 17 27 1007.2 1006.7 0.0
05/04:00pm 27.2 20.5 3.7 22 11.8 W 28 39 15 21 1007.5 1007.0 0.0
05/03:30pm 27.2 21.6 3.7 22 11.8 W 22 35 12 19 1007.7 1007.2 0.0
05/03:00pm 26.9 21.4 4.0 23 11.6 W 22 37 12 20 1007.9 1007.4 0.0
05/02:30pm 26.4 21.3 4.2 24 11.2 W 20 39 11 21 1008.2 1007.7 0.0
05/02:00pm 25.4 19.4 3.4 24 10.9 W 24 35 13 19 1008.6 1008.1 0.0
05/01:30pm 24.3 19.4 5.1 29 9.7 WSW 20 33 11 18 1008.9 1008.4 0.0
05/01:00pm 23.8 18.9 5.2 30 9.4 W 20 33 11 18 1009.2 1008.7 0.0
05/12:30pm 23.0 17.8 5.4 32 8.9 W 22 32 12 17 1009.4 1008.9 0.0
05/12:00pm 21.9 17.4 6.2 36 8.0 WNW 19 26 10 14 1009.7 1009.2 0.0
05/11:30am 21.3 17.0 6.8 39 7.4 W 19 28 10 15 1009.7 1009.2 0.0
05/11:00am 20.3 16.9 7.7 44 6.5 W 15 24 8 13 1010.1 1009.6 0.0
05/10:30am 19.5 15.8 7.9 47 6.0 WNW 17 30 9 16 1010.0 1009.5 0.0
05/10:00am 18.8 14.4 7.6 48 5.7 W 20 26 11 14 1010.3 1009.8 0.0
05/09:30am 18.3 14.1 7.4 49 5.5 W 19 26 10 14 1010.5 1010.0 0.0
05/09:00am 18.0 13.3 7.7 51 5.3 W 22 30 12 16 1010.5 1010.0 0.0
05/08:30am 17.4 14.0 9.1 58 4.3 W 17 24 9 13 1010.3 1009.8 0.0
05/08:00am 16.1 12.6 8.6 61 3.9 W 17 22 9 12 1010.3 1009.8 0.0
05/07:30am 16.0 13.6 8.7 62 3.8 WNW 11 17 6 9 1010.3 1009.8 0.0
05/07:00am 15.2 13.5 8.2 63 3.5 WNW 7 15 4 8 1010.0 1009.5 0.0
05/06:30am 12.6 10.8 8.1 74 2.2 NW 7 9 4 5 1009.7 1009.2 0.0
05/06:00am 13.1 11.3 7.3 68 2.8 NW 6 7 3 4 1009.6 1009.1 0.0
05/05:30am 13.8 11.8 7.1 64 3.3 WNW 7 11 4 6 1009.2 1008.7 0.0
05/05:00am 14.7 11.5 7.0 60 3.8 WNW 13 19 7 10 1009.1 1008.6 0.0
05/04:30am 15.6 12.8 6.9 56 4.3 WNW 11 15 6 8 1008.9 1008.4 0.0
05/04:00am 15.6 12.3 6.3 54 4.5 W 13 19 7 10 1009.0 1008.5 0.0
05/03:30am 16.3 13.0 6.2 51 4.9 W 13 17 7 9 1009.2 1008.7 0.0
05/03:00am 16.8 13.4 5.7 48 5.4 WNW 13 19 7 10 1009.3 1008.8 0.0
05/02:30am 17.2 14.1 5.5 46 5.7 WNW 11 17 6 9 1009.5 1009.0 0.0
05/02:00am 17.7 14.9 5.3 44 6.0 WNW 9 13 5 7 1010.0 1009.5 0.0
05/01:30am 18.2 15.5 5.4 43 6.3 WNW 9 13 5 7 1010.2 1009.7 0.0
05/01:00am 15.1 13.0 8.3 64 3.5 NNW 9 13 5 7 1010.4 1009.9 0.0
05/12:30am 15.3 13.2 8.1 62 3.6 NNW 9 9 5 5 1010.6 1010.1 0.0
05/12:00am 15.6 13.5 8.1 61 3.8 NNW 9 9 5 5 1010.7 1010.2 0.0
 
Date/Time
EDT
Temp
°C
App
Temp
°C
Dew
Point
°C
Rel
Hum
%
Delta-T
°C
Wind Press
QNH
hPa
Press
MSL
hPa
Rain since
9am
mm
Dir  Spd
km/h
Gust
km/h
Spd
kts
Gust
kts
04/11:30pm 15.9 13.8 8.4 61 3.8 NNW 9 11 5 6 1010.9 1010.4 0.0
04/11:00pm 15.7 13.6 8.2 61 3.8 NNW 9 9 5 5 1010.9 1010.4 0.0
04/10:30pm 17.1 15.1 7.2 52 5.0 N 7 7 4 4 1010.9 1010.4 0.0
04/10:00pm 17.2 15.0 6.1 48 5.5 N 7 7 4 4 1010.9 1010.4 0.0
04/09:30pm 17.7 15.6 5.6 45 5.9 N 6 7 3 4 1010.8 1010.3 0.0
04/09:00pm 19.1 17.1 4.5 38 7.1 NW 4 6 2 3 1010.7 1010.2 0.0
04/08:30pm 21.2 18.5 3.9 32 8.4 WNW 7 9 4 5 1010.7 1010.2 0.0
04/08:00pm 22.6 18.8 3.7 29 9.2 W 13 20 7 11 1010.6 1010.1 0.0
04/07:30pm 23.6 19.1 4.0 28 9.7 W 17 24 9 13 1010.4 1009.9 0.0
04/07:00pm 24.2 19.1 4.0 27 10.0 W 20 33 11 18 1010.4 1009.9 0.0
04/06:30pm 24.3 19.3 3.6 26 10.2 WSW 19 28 10 15 1010.2 1009.7 0.0
04/06:00pm 24.5 18.9 3.2 25 10.4 W 22 35 12 19 1010.3 1009.8 0.0
04/05:30pm 24.5 18.4 2.6 24 10.6 W 24 35 13 19 1010.5 1010.0 0.0
04/05:00pm 24.6 19.6 3.8 26 10.3 W 19 33 10 18 1010.6 1010.1 0.0
04/04:30pm 23.8 18.3 4.2 28 9.7 WNW 22 30 12 16 1010.8 1010.3 0.0
04/04:00pm 23.9 18.8 4.3 28 9.8 NW 20 32 11 17 1011.1 1010.6 0.0
04/03:30pm 22.9 18.4 4.4 30 9.2 W 17 30 9 16 1011.3 1010.8 0.0
04/03:00pm 23.7 19.0 5.1 30 9.4 W 19 30 10 16 1011.5 1011.0 0.0
04/02:30pm 22.0 18.6 4.1 31 8.8 W 11 32 6 17 1011.8 1011.3 0.0
04/02:00pm 21.7 17.2 4.3 32 8.5 NW 17 30 9 16 1012.0 1011.5 0.0
04/01:30pm 20.9 16.2 3.2 31 8.4 W 17 26 9 14 1012.3 1011.8 0.0
04/01:00pm 20.9 15.9 3.6 32 8.3 W 19 30 10 16 1012.4 1011.9 0.0
04/12:30pm 20.3 15.3 3.5 33 8.0 WSW 19 28 10 15 1012.6 1012.1 0.0
04/12:00pm 19.4 15.2 3.6 35 7.5 WSW 15 28 8 15 1012.6 1012.1 0.0
04/11:30am 18.8 13.8 3.8 37 7.1 WSW 19 33 10 18 1012.9 1012.4 0.0
04/11:00am 18.5 13.4 4.3 39 6.8 WSW 20 35 11 19 1013.1 1012.6 0.0
04/10:30am 17.6 12.7 4.2 41 6.4 WSW 19 30 10 16 1013.2 1012.8 0.0
04/10:00am 17.0 11.9 4.3 43 6.0 WSW 20 33 11 18 1013.2 1012.8 0.0
04/09:30am 16.5 10.7 4.5 45 5.7 WSW 24 32 13 17 1013.2 1012.8 0.0
04/09:00am 15.3 9.1 4.4 48 5.1 WSW 26 37 14 20 1013.2 1012.8 0.0
04/08:30am 15.3 9.3 5.2 51 4.8 WSW 26 35 14 19 1012.9 1012.4 0.0
04/08:00am 13.9 9.7 5.5 57 4.0 WSW 17 22 9 12 1012.7 1012.2 0.0
04/07:30am 12.4 8.3 6.0 65 3.0 W 17 20 9 11 1012.3 1011.8 0.0
04/07:00am 10.9 7.5 5.7 70 2.4 W 13 19 7 10 1011.9 1011.4 0.0
04/06:30am 9.8 6.7 5.6 75 1.9 W 11 15 6 8 1011.7 1011.2 0.0
04/06:00am 9.4 6.2 5.2 75 1.9 W 11 13 6 7 1011.1 1010.6 0.0
04/05:30am 9.3 6.1 4.9 74 2.0 W 11 15 6 8 1010.7 1010.2 0.0
04/05:00am 9.9 6.7 4.9 71 2.3 W 11 13 6 7 1010.5 1010.0 0.0
04/04:30am 9.9 6.7 5.1 72 2.2 WSW 11 13 6 7 1010.2 1009.7 0.0
04/04:00am 10.5 7.3 5.1 69 2.5 WSW 11 15 6 8 1010.0 1009.5 0.0
04/03:30am 11.4 7.1 5.3 66 2.8 WSW 17 20 9 11 1009.9 1009.4 0.0
04/03:00am 12.7 7.5 5.4 61 3.4 WSW 22 32 12 17 1009.8 1009.3 0.0
04/02:30am 13.2 8.5 6.1 62 3.4 WSW 20 28 11 15 1009.9 1009.4 0.0
04/02:00am 13.9 9.2 6.0 59 3.8 WSW 20 30 11 16 1009.7 1009.2 0.0
04/01:30am 14.4 9.9 6.0 57 4.0 SW 19 28 10 15 1009.4 1008.9 0.0
04/01:00am 15.4 10.6 5.6 52 4.7 WSW 20 28 11 15 1009.3 1008.8 0.0
04/12:30am 16.9 10.9 5.2 46 5.6 WSW 26 35 14 19 1009.0 1008.5 0.0
04/12:00am 17.3 12.3 4.6 43 6.1 W 20 28 11 15 1008.9 1008.4 0.0
 
Date/Time
EDT
Temp
°C
App
Temp
°C
Dew
Point
°C
Rel
Hum
%
Delta-T
°C
Wind Press
QNH
hPa
Press
MSL
hPa
Rain since
9am
mm
Dir  Spd
km/h
Gust
km/h
Spd
kts
Gust
kts
03/11:30pm 17.4 13.0 4.7 43 6.1 W 17 22 9 12 1008.6 1008.1 0.0
03/11:00pm 17.6 13.2 4.6 42 6.2 W 17 24 9 13 1008.4 1007.9 0.0
03/10:30pm 18.4 13.6 4.6 40 6.6 W 19 28 10 15 1008.4 1007.9 0.0
03/10:00pm 18.5 15.2 4.7 40 6.7 W 11 17 6 9 1008.1 1007.6 0.0
03/09:30pm 19.0 15.6 4.0 37 7.2 W 11 17 6 9 1007.8 1007.3 0.0

Other formats

Comma delimited format used in spreadsheet applications
http://www.bom.gov.au/fwo/IDV60801/IDV60801.94862.axf

JavaScript Object Notation format (JSON) in row-major order
http://www.bom.gov.au/fwo/IDV60801/IDV60801.94862.json

Data quality

Most of these data are generated automatically and are frequently updated. Quality checks on data are not normally performed. It is possible for incorrect values to appear. Refer to information at About Latest Weather Observations and please check the disclaimer before using these data.